sensor_id;sensor_type;location;lat;lon;timestamp;P1;durP1;ratioP1;P2;durP2;ratioP2
61806;SDS011;47726;52.766;6.606;2023-02-19T00:02:20;26.38;;;17.67;;
61806;SDS011;47726;52.766;6.606;2023-02-19T00:04:46;28.55;;;17.38;;
61806;SDS011;47726;52.766;6.606;2023-02-19T00:07:11;26.08;;;16.77;;
61806;SDS011;47726;52.766;6.606;2023-02-19T00:09:37;28.35;;;17.90;;
61806;SDS011;47726;52.766;6.606;2023-02-19T00:12:02;29.10;;;18.70;;
61806;SDS011;47726;52.766;6.606;2023-02-19T00:14:28;30.40;;;17.42;;
61806;SDS011;47726;52.766;6.606;2023-02-19T00:16:54;30.40;;;19.17;;
61806;SDS011;47726;52.766;6.606;2023-02-19T00:19:19;30.80;;;18.15;;
61806;SDS011;47726;52.766;6.606;2023-02-19T00:21:45;30.65;;;19.13;;
61806;SDS011;47726;52.766;6.606;2023-02-19T00:24:12;30.75;;;19.90;;
61806;SDS011;47726;52.766;6.606;2023-02-19T00:26:39;34.05;;;20.42;;
61806;SDS011;47726;52.766;6.606;2023-02-19T00:29:05;31.80;;;19.15;;
61806;SDS011;47726;52.766;6.606;2023-02-19T00:31:32;35.20;;;21.02;;
61806;SDS011;47726;52.766;6.606;2023-02-19T00:34:03;32.97;;;20.40;;
61806;SDS011;47726;52.766;6.606;2023-02-19T00:36:29;41.30;;;21.08;;
61806;SDS011;47726;52.766;6.606;2023-02-19T00:38:56;33.00;;;20.25;;
61806;SDS011;47726;52.766;6.606;2023-02-19T00:41:22;37.00;;;20.90;;
61806;SDS011;47726;52.766;6.606;2023-02-19T00:44:07;33.08;;;19.35;;
61806;SDS011;47726;52.766;6.606;2023-02-19T00:46:44;34.63;;;19.60;;
61806;SDS011;47726;52.766;6.606;2023-02-19T00:49:14;35.72;;;19.50;;
61806;SDS011;47726;52.766;6.606;2023-02-19T00:51:44;35.53;;;18.92;;
61806;SDS011;47726;52.766;6.606;2023-02-19T00:54:10;34.08;;;19.58;;
61806;SDS011;47726;52.766;6.606;2023-02-19T00:56:37;37.10;;;19.45;;
61806;SDS011;47726;52.766;6.606;2023-02-19T00:59:02;37.90;;;20.52;;
61806;SDS011;47726;52.766;6.606;2023-02-19T01:01:28;41.50;;;20.73;;
61806;SDS011;47726;52.766;6.606;2023-02-19T01:03:54;37.88;;;19.40;;
61806;SDS011;47726;52.766;6.606;2023-02-19T01:06:21;38.15;;;19.63;;
61806;SDS011;47726;52.766;6.606;2023-02-19T01:08:48;36.38;;;19.20;;
61806;SDS011;47726;52.766;6.606;2023-02-19T01:11:14;39.13;;;19.95;;
61806;SDS011;47726;52.766;6.606;2023-02-19T01:13:40;35.20;;;18.75;;
61806;SDS011;47726;52.766;6.606;2023-02-19T01:16:07;34.05;;;18.45;;
61806;SDS011;47726;52.766;6.606;2023-02-19T01:18:44;38.90;;;17.92;;
61806;SDS011;47726;52.766;6.606;2023-02-19T01:21:15;35.92;;;18.00;;
61806;SDS011;47726;52.766;6.606;2023-02-19T01:23:42;34.58;;;16.88;;
61806;SDS011;47726;52.766;6.606;2023-02-19T01:26:10;38.63;;;16.92;;
61806;SDS011;47726;52.766;6.606;2023-02-19T01:28:38;36.22;;;16.58;;
61806;SDS011;47726;52.766;6.606;2023-02-19T01:31:05;31.48;;;16.15;;
61806;SDS011;47726;52.766;6.606;2023-02-19T01:33:32;35.33;;;15.68;;
61806;SDS011;47726;52.766;6.606;2023-02-19T01:35:59;34.50;;;16.27;;
61806;SDS011;47726;52.766;6.606;2023-02-19T01:38:27;41.78;;;15.38;;
61806;SDS011;47726;52.766;6.606;2023-02-19T01:40:53;29.95;;;14.90;;
61806;SDS011;47726;52.766;6.606;2023-02-19T01:43:23;36.42;;;14.15;;
61806;SDS011;47726;52.766;6.606;2023-02-19T01:45:49;31.27;;;13.27;;
61806;SDS011;47726;52.766;6.606;2023-02-19T01:48:19;30.02;;;13.68;;
61806;SDS011;47726;52.766;6.606;2023-02-19T01:50:50;29.85;;;13.25;;
61806;SDS011;47726;52.766;6.606;2023-02-19T01:53:21;31.63;;;12.73;;
61806;SDS011;47726;52.766;6.606;2023-02-19T01:55:51;30.20;;;12.80;;
61806;SDS011;47726;52.766;6.606;2023-02-19T01:58:20;33.78;;;12.48;;
61806;SDS011;47726;52.766;6.606;2023-02-19T02:00:47;30.50;;;12.25;;
61806;SDS011;47726;52.766;6.606;2023-02-19T02:03:13;29.83;;;11.70;;
61806;SDS011;47726;52.766;6.606;2023-02-19T02:08:12;22.77;;;10.48;;
61806;SDS011;47726;52.766;6.606;2023-02-19T02:10:57;24.08;;;10.00;;
61806;SDS011;47726;52.766;6.606;2023-02-19T02:13:23;22.10;;;10.52;;
61806;SDS011;47726;52.766;6.606;2023-02-19T02:15:51;20.05;;;9.35;;
61806;SDS011;47726;52.766;6.606;2023-02-19T02:18:30;21.95;;;10.00;;
61806;SDS011;47726;52.766;6.606;2023-02-19T02:21:44;19.98;;;9.48;;
61806;SDS011;47726;52.766;6.606;2023-02-19T02:32:10;14.57;;;8.80;;
61806;SDS011;47726;52.766;6.606;2023-02-19T02:35:03;19.50;;;8.88;;
61806;SDS011;47726;52.766;6.606;2023-02-19T02:37:29;17.60;;;8.75;;
61806;SDS011;47726;52.766;6.606;2023-02-19T02:39:59;16.50;;;8.00;;
61806;SDS011;47726;52.766;6.606;2023-02-19T02:42:26;19.17;;;8.63;;
61806;SDS011;47726;52.766;6.606;2023-02-19T02:44:51;16.55;;;9.05;;
61806;SDS011;47726;52.766;6.606;2023-02-19T02:47:38;16.55;;;8.32;;
61806;SDS011;47726;52.766;6.606;2023-02-19T02:50:18;17.58;;;8.73;;
61806;SDS011;47726;52.766;6.606;2023-02-19T02:52:49;18.90;;;8.23;;
61806;SDS011;47726;52.766;6.606;2023-02-19T02:55:38;18.83;;;8.35;;
61806;SDS011;47726;52.766;6.606;2023-02-19T02:58:06;15.05;;;8.10;;
61806;SDS011;47726;52.766;6.606;2023-02-19T03:00:33;14.38;;;7.65;;
61806;SDS011;47726;52.766;6.606;2023-02-19T03:03:19;17.73;;;8.07;;
61806;SDS011;47726;52.766;6.606;2023-02-19T03:05:48;18.67;;;7.10;;
61806;SDS011;47726;52.766;6.606;2023-02-19T03:11:08;13.02;;;7.28;;
61806;SDS011;47726;52.766;6.606;2023-02-19T03:13:56;16.08;;;7.40;;
61806;SDS011;47726;52.766;6.606;2023-02-19T03:16:47;12.55;;;6.97;;
61806;SDS011;47726;52.766;6.606;2023-02-19T03:19:34;14.57;;;6.72;;
61806;SDS011;47726;52.766;6.606;2023-02-19T03:22:19;14.48;;;7.00;;
61806;SDS011;47726;52.766;6.606;2023-02-19T03:25:03;18.60;;;7.03;;
61806;SDS011;47726;52.766;6.606;2023-02-19T03:27:56;12.70;;;6.90;;
61806;SDS011;47726;52.766;6.606;2023-02-19T03:30:27;19.10;;;7.28;;
61806;SDS011;47726;52.766;6.606;2023-02-19T03:32:58;17.98;;;7.95;;
61806;SDS011;47726;52.766;6.606;2023-02-19T03:35:30;15.13;;;7.68;;
61806;SDS011;47726;52.766;6.606;2023-02-19T03:41:09;17.05;;;7.90;;
61806;SDS011;47726;52.766;6.606;2023-02-19T03:43:41;19.83;;;9.05;;
61806;SDS011;47726;52.766;6.606;2023-02-19T03:46:19;17.73;;;9.23;;
61806;SDS011;47726;52.766;6.606;2023-02-19T03:48:52;17.83;;;9.23;;
61806;SDS011;47726;52.766;6.606;2023-02-19T03:54:16;15.43;;;8.77;;
61806;SDS011;47726;52.766;6.606;2023-02-19T03:59:45;16.13;;;8.38;;
61806;SDS011;47726;52.766;6.606;2023-02-19T04:02:23;17.45;;;8.82;;
61806;SDS011;47726;52.766;6.606;2023-02-19T04:05:07;20.63;;;8.73;;
61806;SDS011;47726;52.766;6.606;2023-02-19T04:07:42;17.92;;;8.90;;
61806;SDS011;47726;52.766;6.606;2023-02-19T04:10:10;20.73;;;9.10;;
61806;SDS011;47726;52.766;6.606;2023-02-19T04:12:38;19.00;;;8.63;;
61806;SDS011;47726;52.766;6.606;2023-02-19T04:15:12;22.85;;;9.57;;
61806;SDS011;47726;52.766;6.606;2023-02-19T04:17:45;22.00;;;9.77;;
61806;SDS011;47726;52.766;6.606;2023-02-19T04:20:24;19.85;;;10.57;;
61806;SDS011;47726;52.766;6.606;2023-02-19T04:22:53;19.75;;;9.70;;
61806;SDS011;47726;52.766;6.606;2023-02-19T04:25:20;17.83;;;10.35;;
61806;SDS011;47726;52.766;6.606;2023-02-19T04:27:47;18.13;;;9.35;;
61806;SDS011;47726;52.766;6.606;2023-02-19T04:30:13;20.95;;;9.68;;
61806;SDS011;47726;52.766;6.606;2023-02-19T04:32:39;18.88;;;9.45;;
61806;SDS011;47726;52.766;6.606;2023-02-19T04:35:05;20.13;;;9.13;;
61806;SDS011;47726;52.766;6.606;2023-02-19T04:37:31;21.63;;;10.25;;
61806;SDS011;47726;52.766;6.606;2023-02-19T04:39:57;21.67;;;10.05;;
61806;SDS011;47726;52.766;6.606;2023-02-19T04:42:22;20.20;;;9.88;;
61806;SDS011;47726;52.766;6.606;2023-02-19T04:44:48;22.67;;;10.57;;
61806;SDS011;47726;52.766;6.606;2023-02-19T04:47:13;17.80;;;9.05;;
61806;SDS011;47726;52.766;6.606;2023-02-19T04:49:41;21.13;;;10.30;;
61806;SDS011;47726;52.766;6.606;2023-02-19T04:52:08;20.40;;;9.40;;
61806;SDS011;47726;52.766;6.606;2023-02-19T04:54:34;20.23;;;10.20;;
61806;SDS011;47726;52.766;6.606;2023-02-19T04:56:59;22.23;;;10.73;;
61806;SDS011;47726;52.766;6.606;2023-02-19T04:59:25;21.40;;;9.68;;
61806;SDS011;47726;52.766;6.606;2023-02-19T05:01:50;15.30;;;9.07;;
61806;SDS011;47726;52.766;6.606;2023-02-19T05:04:16;15.98;;;9.27;;
61806;SDS011;47726;52.766;6.606;2023-02-19T05:06:42;12.10;;;7.00;;
61806;SDS011;47726;52.766;6.606;2023-02-19T05:09:07;10.85;;;7.00;;
61806;SDS011;47726;52.766;6.606;2023-02-19T05:11:33;11.00;;;6.75;;
61806;SDS011;47726;52.766;6.606;2023-02-19T05:13:59;8.30;;;5.55;;
61806;SDS011;47726;52.766;6.606;2023-02-19T05:16:24;8.38;;;4.95;;
61806;SDS011;47726;52.766;6.606;2023-02-19T05:18:50;6.63;;;4.88;;
61806;SDS011;47726;52.766;6.606;2023-02-19T05:21:15;6.72;;;4.88;;
61806;SDS011;47726;52.766;6.606;2023-02-19T05:23:41;7.35;;;5.47;;
61806;SDS011;47726;52.766;6.606;2023-02-19T05:26:13;4.97;;;4.20;;
61806;SDS011;47726;52.766;6.606;2023-02-19T05:28:42;5.40;;;4.32;;
61806;SDS011;47726;52.766;6.606;2023-02-19T05:31:11;5.80;;;4.57;;
61806;SDS011;47726;52.766;6.606;2023-02-19T05:33:37;6.57;;;4.90;;
61806;SDS011;47726;52.766;6.606;2023-02-19T05:36:07;6.60;;;5.00;;
61806;SDS011;47726;52.766;6.606;2023-02-19T05:38:37;7.03;;;4.60;;
61806;SDS011;47726;52.766;6.606;2023-02-19T05:43:36;6.38;;;4.50;;
61806;SDS011;47726;52.766;6.606;2023-02-19T05:46:05;5.93;;;4.88;;
61806;SDS011;47726;52.766;6.606;2023-02-19T05:48:32;6.65;;;4.82;;
61806;SDS011;47726;52.766;6.606;2023-02-19T05:51:01;6.78;;;4.95;;
61806;SDS011;47726;52.766;6.606;2023-02-19T05:53:28;6.85;;;4.97;;
61806;SDS011;47726;52.766;6.606;2023-02-19T05:55:54;7.30;;;5.28;;
61806;SDS011;47726;52.766;6.606;2023-02-19T05:58:20;7.00;;;5.25;;
61806;SDS011;47726;52.766;6.606;2023-02-19T06:00:45;7.07;;;5.05;;
61806;SDS011;47726;52.766;6.606;2023-02-19T06:03:11;6.80;;;5.20;;
61806;SDS011;47726;52.766;6.606;2023-02-19T06:05:36;7.18;;;5.10;;
61806;SDS011;47726;52.766;6.606;2023-02-19T06:08:02;9.13;;;5.43;;
61806;SDS011;47726;52.766;6.606;2023-02-19T06:10:28;9.02;;;5.93;;
61806;SDS011;47726;52.766;6.606;2023-02-19T06:12:53;8.55;;;5.25;;
61806;SDS011;47726;52.766;6.606;2023-02-19T06:15:19;7.80;;;5.78;;
61806;SDS011;47726;52.766;6.606;2023-02-19T06:17:45;8.50;;;5.63;;
61806;SDS011;47726;52.766;6.606;2023-02-19T06:20:11;9.15;;;5.80;;
61806;SDS011;47726;52.766;6.606;2023-02-19T06:22:37;7.22;;;5.53;;
61806;SDS011;47726;52.766;6.606;2023-02-19T06:25:02;8.13;;;5.70;;
61806;SDS011;47726;52.766;6.606;2023-02-19T06:27:28;9.73;;;6.03;;
61806;SDS011;47726;52.766;6.606;2023-02-19T06:29:54;7.78;;;5.13;;
61806;SDS011;47726;52.766;6.606;2023-02-19T06:32:19;7.40;;;5.03;;
61806;SDS011;47726;52.766;6.606;2023-02-19T06:34:45;7.88;;;5.50;;
61806;SDS011;47726;52.766;6.606;2023-02-19T06:37:11;8.80;;;5.90;;
61806;SDS011;47726;52.766;6.606;2023-02-19T06:39:36;8.50;;;5.68;;
61806;SDS011;47726;52.766;6.606;2023-02-19T06:42:02;9.05;;;5.68;;
61806;SDS011;47726;52.766;6.606;2023-02-19T06:44:27;9.80;;;5.95;;
61806;SDS011;47726;52.766;6.606;2023-02-19T06:46:53;12.63;;;6.50;;
61806;SDS011;47726;52.766;6.606;2023-02-19T06:49:19;10.57;;;6.47;;
61806;SDS011;47726;52.766;6.606;2023-02-19T06:51:45;9.13;;;5.78;;
61806;SDS011;47726;52.766;6.606;2023-02-19T06:54:11;8.65;;;5.55;;
61806;SDS011;47726;52.766;6.606;2023-02-19T06:56:37;8.45;;;5.60;;
61806;SDS011;47726;52.766;6.606;2023-02-19T06:59:05;8.43;;;5.38;;
61806;SDS011;47726;52.766;6.606;2023-02-19T07:01:33;9.13;;;6.03;;
61806;SDS011;47726;52.766;6.606;2023-02-19T07:04:00;9.25;;;6.30;;
61806;SDS011;47726;52.766;6.606;2023-02-19T07:06:26;10.00;;;6.22;;
61806;SDS011;47726;52.766;6.606;2023-02-19T07:08:53;9.20;;;5.80;;
61806;SDS011;47726;52.766;6.606;2023-02-19T07:11:19;8.80;;;5.43;;
61806;SDS011;47726;52.766;6.606;2023-02-19T07:13:45;9.00;;;5.55;;
61806;SDS011;47726;52.766;6.606;2023-02-19T07:16:11;9.77;;;6.15;;
61806;SDS011;47726;52.766;6.606;2023-02-19T07:18:38;10.00;;;5.97;;
61806;SDS011;47726;52.766;6.606;2023-02-19T07:21:14;8.15;;;5.35;;
61806;SDS011;47726;52.766;6.606;2023-02-19T07:23:40;8.70;;;5.30;;
61806;SDS011;47726;52.766;6.606;2023-02-19T07:26:14;9.05;;;5.57;;
61806;SDS011;47726;52.766;6.606;2023-02-19T07:28:45;9.82;;;5.40;;
61806;SDS011;47726;52.766;6.606;2023-02-19T07:31:12;9.40;;;5.07;;
61806;SDS011;47726;52.766;6.606;2023-02-19T07:33:41;9.25;;;4.97;;
61806;SDS011;47726;52.766;6.606;2023-02-19T07:36:09;10.20;;;5.18;;
61806;SDS011;47726;52.766;6.606;2023-02-19T07:38:36;6.95;;;4.80;;
61806;SDS011;47726;52.766;6.606;2023-02-19T07:41:02;8.10;;;5.07;;
61806;SDS011;47726;52.766;6.606;2023-02-19T07:43:29;9.43;;;5.70;;
61806;SDS011;47726;52.766;6.606;2023-02-19T07:45:56;8.98;;;5.70;;
61806;SDS011;47726;52.766;6.606;2023-02-19T07:48:22;9.18;;;5.80;;
61806;SDS011;47726;52.766;6.606;2023-02-19T07:53:17;9.77;;;5.93;;
61806;SDS011;47726;52.766;6.606;2023-02-19T07:55:43;8.82;;;6.25;;
61806;SDS011;47726;52.766;6.606;2023-02-19T07:58:09;9.55;;;6.60;;
61806;SDS011;47726;52.766;6.606;2023-02-19T08:00:34;8.55;;;6.00;;
61806;SDS011;47726;52.766;6.606;2023-02-19T08:03:00;10.32;;;6.75;;
61806;SDS011;47726;52.766;6.606;2023-02-19T08:05:27;9.38;;;6.65;;
61806;SDS011;47726;52.766;6.606;2023-02-19T08:07:54;8.68;;;6.28;;
61806;SDS011;47726;52.766;6.606;2023-02-19T08:10:21;9.65;;;6.57;;
61806;SDS011;47726;52.766;6.606;2023-02-19T08:13:05;8.18;;;6.28;;
61806;SDS011;47726;52.766;6.606;2023-02-19T08:15:43;9.13;;;6.55;;
61806;SDS011;47726;52.766;6.606;2023-02-19T08:18:10;8.90;;;6.07;;
61806;SDS011;47726;52.766;6.606;2023-02-19T08:20:36;11.45;;;7.00;;
61806;SDS011;47726;52.766;6.606;2023-02-19T08:23:01;10.13;;;6.68;;
61806;SDS011;47726;52.766;6.606;2023-02-19T08:25:27;8.38;;;6.38;;
61806;SDS011;47726;52.766;6.606;2023-02-19T08:27:53;9.82;;;6.70;;
61806;SDS011;47726;52.766;6.606;2023-02-19T08:30:19;10.82;;;6.60;;
61806;SDS011;47726;52.766;6.606;2023-02-19T08:32:46;8.55;;;5.50;;
61806;SDS011;47726;52.766;6.606;2023-02-19T08:35:11;8.70;;;5.50;;
61806;SDS011;47726;52.766;6.606;2023-02-19T08:37:37;9.85;;;5.70;;
61806;SDS011;47726;52.766;6.606;2023-02-19T08:40:02;9.75;;;5.90;;
61806;SDS011;47726;52.766;6.606;2023-02-19T08:42:28;10.30;;;6.10;;
61806;SDS011;47726;52.766;6.606;2023-02-19T08:44:54;9.50;;;5.13;;
61806;SDS011;47726;52.766;6.606;2023-02-19T08:47:20;8.73;;;4.90;;
61806;SDS011;47726;52.766;6.606;2023-02-19T08:49:45;8.05;;;5.03;;
61806;SDS011;47726;52.766;6.606;2023-02-19T08:52:11;8.20;;;5.00;;
61806;SDS011;47726;52.766;6.606;2023-02-19T08:54:37;7.68;;;4.70;;
61806;SDS011;47726;52.766;6.606;2023-02-19T08:57:02;8.05;;;4.70;;
61806;SDS011;47726;52.766;6.606;2023-02-19T08:59:29;10.07;;;5.40;;
61806;SDS011;47726;52.766;6.606;2023-02-19T09:01:56;6.70;;;4.20;;
61806;SDS011;47726;52.766;6.606;2023-02-19T09:04:22;7.53;;;4.40;;
61806;SDS011;47726;52.766;6.606;2023-02-19T09:06:48;6.72;;;4.30;;
61806;SDS011;47726;52.766;6.606;2023-02-19T09:09:14;5.65;;;4.05;;
61806;SDS011;47726;52.766;6.606;2023-02-19T09:11:40;6.65;;;4.30;;
61806;SDS011;47726;52.766;6.606;2023-02-19T09:14:06;6.80;;;4.63;;
61806;SDS011;47726;52.766;6.606;2023-02-19T09:16:32;5.93;;;4.30;;
61806;SDS011;47726;52.766;6.606;2023-02-19T09:18:58;6.70;;;4.70;;
61806;SDS011;47726;52.766;6.606;2023-02-19T09:21:24;5.97;;;4.32;;
61806;SDS011;47726;52.766;6.606;2023-02-19T09:23:49;5.78;;;4.38;;
61806;SDS011;47726;52.766;6.606;2023-02-19T09:26:15;6.60;;;4.40;;
61806;SDS011;47726;52.766;6.606;2023-02-19T09:28:40;6.28;;;4.20;;
61806;SDS011;47726;52.766;6.606;2023-02-19T09:31:07;5.55;;;4.00;;
61806;SDS011;47726;52.766;6.606;2023-02-19T09:33:35;6.75;;;3.90;;
61806;SDS011;47726;52.766;6.606;2023-02-19T09:36:00;7.85;;;5.10;;
61806;SDS011;47726;52.766;6.606;2023-02-19T09:38:27;6.90;;;4.60;;
61806;SDS011;47726;52.766;6.606;2023-02-19T09:40:55;5.85;;;4.07;;
61806;SDS011;47726;52.766;6.606;2023-02-19T09:43:22;6.30;;;4.13;;
61806;SDS011;47726;52.766;6.606;2023-02-19T09:46:03;5.18;;;3.80;;
61806;SDS011;47726;52.766;6.606;2023-02-19T09:48:36;4.40;;;3.17;;
61806;SDS011;47726;52.766;6.606;2023-02-19T09:51:02;3.97;;;3.30;;
61806;SDS011;47726;52.766;6.606;2023-02-19T09:53:32;4.78;;;3.08;;
61806;SDS011;47726;52.766;6.606;2023-02-19T09:56:04;3.42;;;2.97;;
61806;SDS011;47726;52.766;6.606;2023-02-19T09:58:32;5.47;;;3.33;;
61806;SDS011;47726;52.766;6.606;2023-02-19T10:01:00;5.45;;;3.70;;
61806;SDS011;47726;52.766;6.606;2023-02-19T10:03:30;7.57;;;4.10;;
61806;SDS011;47726;52.766;6.606;2023-02-19T10:06:00;4.28;;;3.20;;
61806;SDS011;47726;52.766;6.606;2023-02-19T10:08:31;3.50;;;2.85;;
61806;SDS011;47726;52.766;6.606;2023-02-19T10:10:59;4.35;;;3.03;;
61806;SDS011;47726;52.766;6.606;2023-02-19T10:13:33;4.35;;;3.15;;
61806;SDS011;47726;52.766;6.606;2023-02-19T10:16:04;5.53;;;3.15;;
61806;SDS011;47726;52.766;6.606;2023-02-19T10:18:37;4.63;;;3.10;;
61806;SDS011;47726;52.766;6.606;2023-02-19T10:21:05;3.35;;;2.85;;
61806;SDS011;47726;52.766;6.606;2023-02-19T10:23:32;4.75;;;3.05;;
61806;SDS011;47726;52.766;6.606;2023-02-19T10:25:58;3.40;;;3.10;;
61806;SDS011;47726;52.766;6.606;2023-02-19T10:28:25;5.20;;;3.22;;
61806;SDS011;47726;52.766;6.606;2023-02-19T10:30:55;3.88;;;3.00;;
61806;SDS011;47726;52.766;6.606;2023-02-19T10:33:23;3.67;;;2.90;;
61806;SDS011;47726;52.766;6.606;2023-02-19T10:35:50;5.18;;;3.22;;
61806;SDS011;47726;52.766;6.606;2023-02-19T10:38:28;4.07;;;2.95;;
61806;SDS011;47726;52.766;6.606;2023-02-19T10:41:11;3.97;;;3.05;;
61806;SDS011;47726;52.766;6.606;2023-02-19T10:43:42;3.92;;;2.83;;
61806;SDS011;47726;52.766;6.606;2023-02-19T10:46:19;3.30;;;2.97;;
61806;SDS011;47726;52.766;6.606;2023-02-19T10:48:58;3.97;;;3.00;;
61806;SDS011;47726;52.766;6.606;2023-02-19T10:51:41;4.40;;;2.78;;
61806;SDS011;47726;52.766;6.606;2023-02-19T10:59:50;3.00;;;2.58;;
61806;SDS011;47726;52.766;6.606;2023-02-19T11:02:18;2.67;;;2.10;;
61806;SDS011;47726;52.766;6.606;2023-02-19T11:07:54;2.95;;;2.00;;
61806;SDS011;47726;52.766;6.606;2023-02-19T11:10:24;2.40;;;2.15;;
61806;SDS011;47726;52.766;6.606;2023-02-19T11:12:51;2.90;;;2.20;;
61806;SDS011;47726;52.766;6.606;2023-02-19T11:15:29;3.97;;;2.00;;
61806;SDS011;47726;52.766;6.606;2023-02-19T11:23:27;3.28;;;2.00;;
61806;SDS011;47726;52.766;6.606;2023-02-19T11:25:55;3.83;;;2.37;;
61806;SDS011;47726;52.766;6.606;2023-02-19T11:30:48;5.30;;;2.42;;
61806;SDS011;47726;52.766;6.606;2023-02-19T11:35:59;2.53;;;2.28;;
61806;SDS011;47726;52.766;6.606;2023-02-19T11:38:41;2.88;;;1.95;;
61806;SDS011;47726;52.766;6.606;2023-02-19T11:43:55;4.28;;;1.70;;
61806;SDS011;47726;52.766;6.606;2023-02-19T11:46:32;2.67;;;1.60;;
61806;SDS011;47726;52.766;6.606;2023-02-19T11:49:20;3.20;;;1.70;;
61806;SDS011;47726;52.766;6.606;2023-02-19T11:57:56;3.45;;;1.70;;
61806;SDS011;47726;52.766;6.606;2023-02-19T12:00:48;2.70;;;1.80;;
61806;SDS011;47726;52.766;6.606;2023-02-19T12:11:48;3.38;;;2.90;;
61806;SDS011;47726;52.766;6.606;2023-02-19T12:17:17;3.78;;;2.30;;
61806;SDS011;47726;52.766;6.606;2023-02-19T12:19:56;3.72;;;2.28;;
61806;SDS011;47726;52.766;6.606;2023-02-19T12:25:20;4.07;;;2.30;;
61806;SDS011;47726;52.766;6.606;2023-02-19T12:30:39;3.25;;;2.30;;
61806;SDS011;47726;52.766;6.606;2023-02-19T12:39:31;4.85;;;2.35;;
61806;SDS011;47726;52.766;6.606;2023-02-19T12:42:32;5.13;;;2.40;;
61806;SDS011;47726;52.766;6.606;2023-02-19T12:45:23;2.47;;;2.20;;
61806;SDS011;47726;52.766;6.606;2023-02-19T12:48:01;3.17;;;1.95;;
61806;SDS011;47726;52.766;6.606;2023-02-19T12:50:43;2.80;;;2.20;;
61806;SDS011;47726;52.766;6.606;2023-02-19T12:53:18;5.35;;;2.40;;
61806;SDS011;47726;52.766;6.606;2023-02-19T12:56:00;2.65;;;2.17;;
61806;SDS011;47726;52.766;6.606;2023-02-19T12:58:38;2.80;;;2.42;;
61806;SDS011;47726;52.766;6.606;2023-02-19T13:01:08;3.38;;;2.40;;
61806;SDS011;47726;52.766;6.606;2023-02-19T13:03:38;4.95;;;2.38;;
61806;SDS011;47726;52.766;6.606;2023-02-19T13:09:05;6.15;;;3.50;;
61806;SDS011;47726;52.766;6.606;2023-02-19T13:11:40;2.88;;;2.00;;
61806;SDS011;47726;52.766;6.606;2023-02-19T13:14:21;3.05;;;2.00;;
61806;SDS011;47726;52.766;6.606;2023-02-19T13:16:51;4.38;;;2.40;;
61806;SDS011;47726;52.766;6.606;2023-02-19T13:19:21;3.90;;;2.30;;
61806;SDS011;47726;52.766;6.606;2023-02-19T13:21:51;3.03;;;2.17;;
61806;SDS011;47726;52.766;6.606;2023-02-19T13:24:44;3.47;;;2.00;;
61806;SDS011;47726;52.766;6.606;2023-02-19T13:30:24;3.50;;;1.95;;
61806;SDS011;47726;52.766;6.606;2023-02-19T13:38:19;3.67;;;2.00;;
61806;SDS011;47726;52.766;6.606;2023-02-19T13:40:57;3.17;;;1.70;;
61806;SDS011;47726;52.766;6.606;2023-02-19T13:43:34;3.10;;;1.88;;
61806;SDS011;47726;52.766;6.606;2023-02-19T13:46:05;3.58;;;2.05;;
61806;SDS011;47726;52.766;6.606;2023-02-19T13:48:37;4.57;;;2.28;;
61806;SDS011;47726;52.766;6.606;2023-02-19T14:09:45;2.50;;;1.30;;
61806;SDS011;47726;52.766;6.606;2023-02-19T14:27:52;1.95;;;1.27;;
61806;SDS011;47726;52.766;6.606;2023-02-19T14:30:21;4.40;;;1.67;;
61806;SDS011;47726;52.766;6.606;2023-02-19T14:32:48;2.38;;;1.60;;
61806;SDS011;47726;52.766;6.606;2023-02-19T14:35:18;3.38;;;1.40;;
61806;SDS011;47726;52.766;6.606;2023-02-19T14:37:46;3.17;;;1.60;;
61806;SDS011;47726;52.766;6.606;2023-02-19T14:40:19;2.65;;;1.40;;
61806;SDS011;47726;52.766;6.606;2023-02-19T14:42:48;3.45;;;1.58;;
61806;SDS011;47726;52.766;6.606;2023-02-19T14:45:17;2.85;;;1.40;;
61806;SDS011;47726;52.766;6.606;2023-02-19T14:47:44;3.28;;;1.50;;
61806;SDS011;47726;52.766;6.606;2023-02-19T14:50:14;2.58;;;1.50;;
61806;SDS011;47726;52.766;6.606;2023-02-19T14:52:55;2.35;;;1.60;;
61806;SDS011;47726;52.766;6.606;2023-02-19T14:55:29;2.30;;;1.60;;
61806;SDS011;47726;52.766;6.606;2023-02-19T14:57:58;3.45;;;1.88;;
61806;SDS011;47726;52.766;6.606;2023-02-19T15:00:30;3.22;;;1.98;;
61806;SDS011;47726;52.766;6.606;2023-02-19T15:02:59;2.92;;;1.90;;
61806;SDS011;47726;52.766;6.606;2023-02-19T15:05:27;2.85;;;1.65;;
61806;SDS011;47726;52.766;6.606;2023-02-19T15:07:54;2.75;;;1.60;;
61806;SDS011;47726;52.766;6.606;2023-02-19T15:10:23;4.05;;;1.60;;
61806;SDS011;47726;52.766;6.606;2023-02-19T15:12:52;3.38;;;1.60;;
61806;SDS011;47726;52.766;6.606;2023-02-19T15:15:22;2.97;;;1.90;;
61806;SDS011;47726;52.766;6.606;2023-02-19T15:17:51;5.07;;;2.10;;
61806;SDS011;47726;52.766;6.606;2023-02-19T15:20:18;4.00;;;1.73;;
61806;SDS011;47726;52.766;6.606;2023-02-19T15:22:47;5.18;;;1.67;;
61806;SDS011;47726;52.766;6.606;2023-02-19T15:25:16;2.72;;;1.45;;
61806;SDS011;47726;52.766;6.606;2023-02-19T15:27:44;3.33;;;1.90;;
61806;SDS011;47726;52.766;6.606;2023-02-19T15:32:52;3.58;;;1.90;;
61806;SDS011;47726;52.766;6.606;2023-02-19T15:35:19;3.67;;;1.80;;
61806;SDS011;47726;52.766;6.606;2023-02-19T15:37:47;2.05;;;1.60;;
61806;SDS011;47726;52.766;6.606;2023-02-19T15:40:14;4.40;;;1.80;;
61806;SDS011;47726;52.766;6.606;2023-02-19T15:42:40;3.92;;;1.90;;
61806;SDS011;47726;52.766;6.606;2023-02-19T15:45:16;5.68;;;2.67;;
61806;SDS011;47726;52.766;6.606;2023-02-19T15:47:54;3.05;;;2.30;;
61806;SDS011;47726;52.766;6.606;2023-02-19T15:52:53;4.88;;;2.03;;
61806;SDS011;47726;52.766;6.606;2023-02-19T15:55:42;2.53;;;2.03;;
61806;SDS011;47726;52.766;6.606;2023-02-19T16:00:44;4.38;;;2.10;;
61806;SDS011;47726;52.766;6.606;2023-02-19T16:03:19;5.88;;;1.88;;
61806;SDS011;47726;52.766;6.606;2023-02-19T16:05:59;4.38;;;1.80;;
61806;SDS011;47726;52.766;6.606;2023-02-19T16:08:29;2.67;;;1.90;;
61806;SDS011;47726;52.766;6.606;2023-02-19T16:11:00;3.17;;;2.10;;
61806;SDS011;47726;52.766;6.606;2023-02-19T16:13:29;3.55;;;1.83;;
61806;SDS011;47726;52.766;6.606;2023-02-19T16:16:12;2.85;;;1.80;;
61806;SDS011;47726;52.766;6.606;2023-02-19T16:18:48;3.53;;;2.30;;
61806;SDS011;47726;52.766;6.606;2023-02-19T16:21:16;3.75;;;2.60;;
61806;SDS011;47726;52.766;6.606;2023-02-19T16:23:45;4.50;;;2.28;;
61806;SDS011;47726;52.766;6.606;2023-02-19T16:26:13;4.18;;;2.20;;
61806;SDS011;47726;52.766;6.606;2023-02-19T16:28:39;3.67;;;2.28;;
61806;SDS011;47726;52.766;6.606;2023-02-19T16:31:06;2.80;;;2.20;;
61806;SDS011;47726;52.766;6.606;2023-02-19T16:38:58;3.83;;;2.17;;
61806;SDS011;47726;52.766;6.606;2023-02-19T16:46:53;4.60;;;2.40;;
61806;SDS011;47726;52.766;6.606;2023-02-19T16:49:22;4.18;;;2.10;;
61806;SDS011;47726;52.766;6.606;2023-02-19T16:51:48;6.55;;;2.90;;
61806;SDS011;47726;52.766;6.606;2023-02-19T16:54:14;4.82;;;2.85;;
61806;SDS011;47726;52.766;6.606;2023-02-19T16:56:40;6.43;;;2.80;;
61806;SDS011;47726;52.766;6.606;2023-02-19T16:59:06;8.43;;;2.97;;
61806;SDS011;47726;52.766;6.606;2023-02-19T17:01:32;4.63;;;2.60;;
61806;SDS011;47726;52.766;6.606;2023-02-19T17:04:01;6.72;;;2.85;;
61806;SDS011;47726;52.766;6.606;2023-02-19T17:06:29;3.35;;;2.30;;
61806;SDS011;47726;52.766;6.606;2023-02-19T17:08:56;5.13;;;2.58;;
61806;SDS011;47726;52.766;6.606;2023-02-19T17:11:22;4.78;;;2.63;;
61806;SDS011;47726;52.766;6.606;2023-02-19T17:13:48;7.18;;;2.58;;
61806;SDS011;47726;52.766;6.606;2023-02-19T17:16:18;4.43;;;2.47;;
61806;SDS011;47726;52.766;6.606;2023-02-19T17:18:45;4.07;;;2.30;;
61806;SDS011;47726;52.766;6.606;2023-02-19T17:21:14;4.32;;;2.40;;